createdAt,value
2018-05-13T14:43:27.176Z,47.48
2018-05-13T14:45:57.499Z,47.64
2018-05-13T14:48:26.881Z,48.15
2018-05-13T14:50:58.185Z,47.71
2018-05-13T14:53:31.891Z,45.38
2018-05-13T14:56:00.410Z,47.11
2018-05-13T14:58:28.535Z,46.57
2018-05-13T15:00:56.677Z,46.81
2018-05-13T15:03:24.899Z,46.66
2018-05-13T15:05:53.989Z,47.31
2018-05-13T15:08:22.140Z,46.92
2018-05-13T15:10:50.308Z,47.40
2018-05-13T15:13:18.474Z,46.38
2018-05-13T15:15:46.622Z,46.74
2018-05-13T15:18:14.762Z,47.32
2018-05-13T15:20:49.329Z,47.54
2018-05-13T15:23:17.618Z,47.79
2018-05-13T15:25:45.735Z,47.75
2018-05-13T15:28:13.898Z,47.70
2018-05-13T15:30:41.999Z,47.24
2018-05-13T15:33:10.115Z,47.41
2018-05-13T15:35:38.261Z,47.33
2018-05-13T15:38:06.362Z,46.68
2018-05-13T15:40:34.490Z,48.55
2018-05-13T15:43:02.760Z,48.82
2018-05-13T15:45:31.097Z,49.18
2018-05-13T15:47:59.374Z,49.01
2018-05-13T15:50:27.506Z,47.89
2018-05-13T15:52:55.623Z,48.48
2018-05-13T15:55:24.478Z,48.92
2018-05-13T15:57:52.669Z,48.56
2018-05-13T16:00:20.768Z,48.93
2018-05-13T16:02:48.909Z,48.75
2018-05-13T16:05:17.038Z,49.18
2018-05-13T16:07:45.254Z,49.53
2018-05-13T16:10:13.399Z,49.00
2018-05-13T16:12:41.523Z,49.20
2018-05-13T16:15:11.061Z,49.83
2018-05-13T16:17:39.191Z,49.62
2018-05-13T16:20:07.340Z,49.28
2018-05-13T16:22:35.479Z,49.39
2018-05-13T16:25:03.818Z,49.37
2018-05-13T16:27:31.976Z,49.49
2018-05-13T16:30:00.179Z,50.10
2018-05-13T16:35:44.578Z,50.47
2018-05-13T16:38:13.794Z,50.48
2018-05-13T16:40:46.512Z,51.47
2018-05-13T16:43:17.322Z,51.63
2018-05-13T16:45:49.261Z,50.48
2018-05-13T16:48:25.888Z,51.20
2018-05-13T16:51:01.614Z,50.44
2018-05-13T16:53:54.304Z,49.01
2018-05-13T16:56:28.342Z,48.13
2018-05-13T16:58:56.748Z,47.66
2018-05-13T17:01:24.931Z,47.47
2018-05-13T17:03:53.187Z,47.64
2018-05-13T17:06:21.571Z,48.35
2018-05-13T17:08:50.977Z,48.48
2018-05-13T17:11:19.166Z,49.08
2018-05-13T17:13:49.184Z,49.15
2018-05-13T17:16:18.503Z,48.90
2018-05-13T17:18:57.546Z,49.61
2018-05-13T17:21:27.851Z,50.30
2018-05-13T17:23:56.465Z,50.76
2018-05-13T17:26:26.284Z,51.27
2018-05-13T17:28:54.900Z,51.85
2018-05-13T17:31:24.578Z,51.62
2018-05-13T17:33:53.283Z,51.51
2018-05-13T17:36:22.160Z,51.77
2018-05-13T17:38:51.472Z,51.98
2018-05-13T17:41:20.084Z,52.21
2018-05-13T17:43:51.087Z,52.34
2018-05-13T17:46:19.810Z,52.21
2018-05-13T17:48:49.009Z,52.57
2018-05-13T17:51:17.213Z,52.43
2018-05-13T17:53:45.337Z,52.83
2018-05-13T17:56:13.546Z,52.71
2018-05-13T17:58:42.631Z,52.59
2018-05-13T18:01:10.825Z,53.16
2018-05-13T18:03:39.001Z,53.44
2018-05-13T18:06:07.188Z,52.80
2018-05-13T18:08:35.572Z,53.36
2018-05-13T18:11:03.722Z,52.81
2018-05-13T18:13:31.874Z,53.07
2018-05-13T18:16:00.007Z,53.11
2018-05-13T18:18:28.165Z,53.57
2018-05-13T18:20:56.567Z,54.09
2018-05-13T18:23:25.083Z,54.50
2018-05-13T18:25:53.294Z,55.32
2018-05-13T18:28:21.425Z,55.77
2018-05-13T18:30:49.562Z,55.95
2018-05-13T18:33:17.764Z,56.32
2018-05-13T18:35:45.960Z,56.39
2018-05-13T18:38:14.081Z,56.65
2018-05-13T18:40:42.272Z,56.55
2018-05-13T18:43:10.412Z,57.06
2018-05-13T18:45:38.555Z,57.66
2018-05-13T18:48:06.850Z,57.36
2018-05-13T18:50:34.969Z,58.04
2018-05-13T18:55:37.637Z,57.82
2018-05-13T18:58:05.773Z,57.60
2018-05-13T19:00:33.886Z,57.42
2018-05-13T19:03:02.074Z,57.79
2018-05-13T19:05:30.199Z,57.12
2018-05-13T19:07:58.314Z,57.22
2018-05-13T19:10:26.475Z,57.53
2018-05-13T19:12:54.671Z,57.26
2018-05-13T19:15:22.804Z,57.00
2018-05-13T19:17:51.379Z,56.99
2018-05-13T19:20:19.501Z,56.78
2018-05-13T19:22:47.635Z,56.59
2018-05-13T19:25:15.794Z,56.73
2018-05-13T19:27:43.913Z,56.72
2018-05-13T19:30:12.042Z,56.72
2018-05-13T19:32:40.198Z,56.72
2018-05-13T19:35:08.425Z,56.40
2018-05-13T19:37:36.553Z,56.35
2018-05-13T19:40:04.709Z,56.28
2018-05-13T19:42:32.883Z,56.99
2018-05-13T19:45:01.011Z,56.65
2018-05-13T19:47:29.664Z,56.82
2018-05-13T19:49:57.835Z,57.13
2018-05-13T19:52:25.957Z,56.84
2018-05-13T19:54:54.122Z,57.03
2018-05-13T19:57:22.254Z,56.86
2018-05-13T19:59:50.406Z,57.13
2018-05-13T20:02:18.574Z,57.13
2018-05-13T20:04:46.688Z,56.89
2018-05-13T20:07:14.821Z,57.00
2018-05-13T20:09:43.918Z,57.41
2018-05-13T20:12:12.011Z,57.65
2018-05-13T20:14:40.244Z,57.35
2018-05-13T20:17:08.878Z,57.40
2018-05-13T20:19:37.020Z,57.74
2018-05-13T20:22:05.158Z,58.05
2018-05-13T20:24:33.301Z,58.08
2018-05-13T20:27:01.445Z,58.46
2018-05-13T20:29:29.566Z,58.97
2018-05-13T20:31:57.694Z,58.54
2018-05-13T20:34:25.835Z,58.77
2018-05-13T20:36:53.956Z,59.36
2018-05-13T20:39:22.082Z,59.02
2018-05-13T20:41:50.229Z,59.45
2018-05-13T20:44:18.421Z,59.93
2018-05-13T20:46:46.529Z,60.11
2018-05-13T20:49:14.653Z,60.10
2018-05-13T20:51:42.797Z,60.34
2018-05-13T20:54:10.932Z,59.92
2018-05-13T20:56:39.068Z,60.11
2018-05-13T20:59:07.229Z,60.41
2018-05-13T21:01:35.333Z,60.62
2018-05-13T21:04:03.468Z,60.92
2018-05-13T21:06:31.596Z,60.94
2018-05-13T21:08:59.720Z,61.34
2018-05-13T21:11:27.862Z,61.66
2018-05-13T21:13:56.027Z,62.14
2018-05-13T21:16:24.156Z,62.42
2018-05-13T21:18:52.289Z,62.66
2018-05-13T21:21:20.441Z,62.52
2018-05-13T21:23:48.571Z,63.16
2018-05-13T21:26:16.714Z,63.43
2018-05-13T21:28:45.175Z,63.32
2018-05-13T21:31:13.327Z,63.76
2018-05-13T21:33:41.471Z,63.75
2018-05-13T21:36:09.617Z,64.28
2018-05-13T21:38:37.758Z,64.37
2018-05-13T21:41:05.945Z,64.83
2018-05-13T21:43:34.089Z,65.14
2018-05-13T21:46:02.230Z,65.07
2018-05-13T21:48:31.668Z,65.05
2018-05-13T21:50:59.794Z,65.41
2018-05-13T21:53:27.919Z,65.81
2018-05-13T21:55:56.821Z,66.82
2018-05-13T21:58:24.957Z,66.92
2018-05-13T22:00:53.074Z,66.27
2018-05-13T22:03:21.194Z,66.41
2018-05-13T22:05:49.314Z,66.30
2018-05-13T22:08:17.438Z,66.94
2018-05-13T22:10:45.567Z,66.94
2018-05-13T22:13:13.706Z,66.81
2018-05-13T22:15:41.854Z,66.75
2018-05-13T22:18:09.979Z,66.66
2018-05-13T22:20:38.130Z,66.19
2018-05-13T22:23:06.363Z,65.95
2018-05-13T22:25:34.545Z,66.84
2018-05-13T22:28:02.835Z,66.58
2018-05-13T22:30:31.004Z,66.79
2018-05-13T22:32:59.196Z,67.29
2018-05-13T22:35:36.154Z,67.76
2018-05-13T22:38:04.286Z,68.02
2018-05-13T22:40:32.412Z,68.13
2018-05-13T22:43:00.528Z,68.04
2018-05-13T22:45:28.682Z,68.20
2018-05-13T22:47:56.797Z,68.59
2018-05-13T22:50:25.079Z,69.02
2018-05-13T22:52:53.217Z,69.13
2018-05-13T22:55:21.329Z,69.33
2018-05-13T22:57:49.562Z,69.52
2018-05-13T23:00:17.845Z,69.83
2018-05-13T23:02:46.022Z,70.12
2018-05-13T23:05:14.148Z,70.49
2018-05-13T23:07:42.331Z,71.01
2018-05-13T23:10:10.407Z,70.51
2018-05-13T23:12:38.568Z,70.92
2018-05-13T23:15:06.780Z,70.82
2018-05-13T23:17:34.892Z,71.40
2018-05-13T23:20:03.048Z,71.83
2018-05-13T23:22:35.110Z,71.99
2018-05-13T23:25:03.253Z,71.73
2018-05-13T23:27:31.366Z,71.97
2018-05-13T23:29:59.515Z,71.97
2018-05-13T23:32:28.454Z,71.71
2018-05-13T23:34:56.582Z,71.76
2018-05-13T23:37:24.718Z,71.52
2018-05-13T23:39:52.838Z,71.90
2018-05-13T23:42:20.962Z,72.01
2018-05-13T23:44:49.099Z,72.15
2018-05-13T23:47:17.226Z,72.95
2018-05-13T23:49:45.379Z,73.55
2018-05-13T23:52:13.502Z,73.55
2018-05-13T23:54:41.632Z,73.50
2018-05-13T23:57:09.818Z,73.58
2018-05-13T23:59:38.742Z,73.77
